sensor_id;sensor_type;location;lat;lon;timestamp;P1;durP1;ratioP1;P2;durP2;ratioP2
13552;SDS011;6847;48.830;9.116;2022-08-01T00:02:08;0.10;;;0.10;;
13552;SDS011;6847;48.830;9.116;2022-08-01T00:04:53;0.10;;;0.10;;
13552;SDS011;6847;48.830;9.116;2022-08-01T00:07:39;0.10;;;0.10;;
13552;SDS011;6847;48.830;9.116;2022-08-01T00:10:26;0.13;;;0.13;;
13552;SDS011;6847;48.830;9.116;2022-08-01T00:13:11;0.10;;;0.10;;
13552;SDS011;6847;48.830;9.116;2022-08-01T00:15:58;0.17;;;0.17;;
13552;SDS011;6847;48.830;9.116;2022-08-01T00:18:48;0.10;;;0.10;;
13552;SDS011;6847;48.830;9.116;2022-08-01T00:21:34;0.10;;;0.10;;
13552;SDS011;6847;48.830;9.116;2022-08-01T00:24:19;0.10;;;0.10;;
13552;SDS011;6847;48.830;9.116;2022-08-01T00:27:06;0.10;;;0.10;;
13552;SDS011;6847;48.830;9.116;2022-08-01T00:29:51;0.10;;;0.10;;
13552;SDS011;6847;48.830;9.116;2022-08-01T00:32:37;0.10;;;0.10;;
13552;SDS011;6847;48.830;9.116;2022-08-01T00:35:23;0.10;;;0.10;;
13552;SDS011;6847;48.830;9.116;2022-08-01T00:38:08;0.10;;;0.10;;
13552;SDS011;6847;48.830;9.116;2022-08-01T00:40:58;0.10;;;0.10;;
13552;SDS011;6847;48.830;9.116;2022-08-01T00:43:45;0.10;;;0.10;;
13552;SDS011;6847;48.830;9.116;2022-08-01T00:46:31;0.10;;;0.10;;
13552;SDS011;6847;48.830;9.116;2022-08-01T00:49:17;0.10;;;0.10;;
13552;SDS011;6847;48.830;9.116;2022-08-01T00:52:03;0.13;;;0.13;;
13552;SDS011;6847;48.830;9.116;2022-08-01T00:54:50;0.10;;;0.10;;
13552;SDS011;6847;48.830;9.116;2022-08-01T00:57:39;0.10;;;0.10;;
13552;SDS011;6847;48.830;9.116;2022-08-01T01:00:26;0.10;;;0.10;;
13552;SDS011;6847;48.830;9.116;2022-08-01T01:03:12;0.10;;;0.10;;
13552;SDS011;6847;48.830;9.116;2022-08-01T01:06:08;0.10;;;0.10;;
13552;SDS011;6847;48.830;9.116;2022-08-01T01:09:13;0.20;;;0.20;;
13552;SDS011;6847;48.830;9.116;2022-08-01T01:12:22;0.17;;;0.17;;
13552;SDS011;6847;48.830;9.116;2022-08-01T01:15:18;0.10;;;0.10;;
13552;SDS011;6847;48.830;9.116;2022-08-01T01:18:12;0.10;;;0.10;;
13552;SDS011;6847;48.830;9.116;2022-08-01T01:21:07;0.10;;;0.10;;
13552;SDS011;6847;48.830;9.116;2022-08-01T01:24:07;0.10;;;0.10;;
13552;SDS011;6847;48.830;9.116;2022-08-01T01:27:06;0.10;;;0.10;;
13552;SDS011;6847;48.830;9.116;2022-08-01T01:30:05;0.10;;;0.10;;
13552;SDS011;6847;48.830;9.116;2022-08-01T01:32:56;0.20;;;0.20;;
13552;SDS011;6847;48.830;9.116;2022-08-01T01:35:46;0.10;;;0.10;;
13552;SDS011;6847;48.830;9.116;2022-08-01T01:38:36;0.10;;;0.10;;
13552;SDS011;6847;48.830;9.116;2022-08-01T01:41:28;0.10;;;0.10;;
13552;SDS011;6847;48.830;9.116;2022-08-01T01:44:16;0.10;;;0.10;;
13552;SDS011;6847;48.830;9.116;2022-08-01T01:47:04;0.13;;;0.13;;
13552;SDS011;6847;48.830;9.116;2022-08-01T01:49:52;0.10;;;0.10;;
13552;SDS011;6847;48.830;9.116;2022-08-01T01:52:45;0.10;;;0.10;;
13552;SDS011;6847;48.830;9.116;2022-08-01T01:55:35;0.13;;;0.13;;
13552;SDS011;6847;48.830;9.116;2022-08-01T01:58:21;0.20;;;0.20;;
13552;SDS011;6847;48.830;9.116;2022-08-01T02:01:10;0.20;;;0.20;;
13552;SDS011;6847;48.830;9.116;2022-08-01T02:03:58;0.10;;;0.10;;
13552;SDS011;6847;48.830;9.116;2022-08-01T02:06:47;0.10;;;0.10;;
13552;SDS011;6847;48.830;9.116;2022-08-01T02:09:36;0.10;;;0.10;;
13552;SDS011;6847;48.830;9.116;2022-08-01T02:12:25;0.13;;;0.13;;
13552;SDS011;6847;48.830;9.116;2022-08-01T02:15:12;0.10;;;0.10;;
13552;SDS011;6847;48.830;9.116;2022-08-01T02:17:59;0.10;;;0.10;;
13552;SDS011;6847;48.830;9.116;2022-08-01T02:20:51;0.10;;;0.10;;
13552;SDS011;6847;48.830;9.116;2022-08-01T02:23:39;0.10;;;0.10;;
13552;SDS011;6847;48.830;9.116;2022-08-01T02:26:27;0.10;;;0.10;;
13552;SDS011;6847;48.830;9.116;2022-08-01T02:29:13;0.10;;;0.10;;
13552;SDS011;6847;48.830;9.116;2022-08-01T02:32:02;0.20;;;0.20;;
13552;SDS011;6847;48.830;9.116;2022-08-01T02:34:51;0.10;;;0.10;;
13552;SDS011;6847;48.830;9.116;2022-08-01T02:37:46;0.10;;;0.10;;
13552;SDS011;6847;48.830;9.116;2022-08-01T02:40:33;0.10;;;0.10;;
13552;SDS011;6847;48.830;9.116;2022-08-01T02:43:28;0.20;;;0.20;;
13552;SDS011;6847;48.830;9.116;2022-08-01T02:46:16;0.10;;;0.10;;
13552;SDS011;6847;48.830;9.116;2022-08-01T02:49:07;0.10;;;0.10;;
13552;SDS011;6847;48.830;9.116;2022-08-01T02:51:56;0.10;;;0.10;;
13552;SDS011;6847;48.830;9.116;2022-08-01T02:54:45;0.10;;;0.10;;
13552;SDS011;6847;48.830;9.116;2022-08-01T02:57:33;0.10;;;0.10;;
13552;SDS011;6847;48.830;9.116;2022-08-01T03:00:21;0.10;;;0.10;;
13552;SDS011;6847;48.830;9.116;2022-08-01T03:03:12;0.10;;;0.10;;
13552;SDS011;6847;48.830;9.116;2022-08-01T03:06:03;0.10;;;0.10;;
13552;SDS011;6847;48.830;9.116;2022-08-01T03:08:57;0.10;;;0.10;;
13552;SDS011;6847;48.830;9.116;2022-08-01T03:11:45;0.10;;;0.10;;
13552;SDS011;6847;48.830;9.116;2022-08-01T03:14:37;0.10;;;0.10;;
13552;SDS011;6847;48.830;9.116;2022-08-01T03:17:24;0.20;;;0.20;;
13552;SDS011;6847;48.830;9.116;2022-08-01T03:20:19;0.10;;;0.10;;
13552;SDS011;6847;48.830;9.116;2022-08-01T03:23:08;0.10;;;0.10;;
13552;SDS011;6847;48.830;9.116;2022-08-01T03:25:57;0.10;;;0.10;;
13552;SDS011;6847;48.830;9.116;2022-08-01T03:28:48;0.10;;;0.10;;
13552;SDS011;6847;48.830;9.116;2022-08-01T03:31:37;0.10;;;0.10;;
13552;SDS011;6847;48.830;9.116;2022-08-01T03:34:26;0.10;;;0.10;;
13552;SDS011;6847;48.830;9.116;2022-08-01T03:37:14;0.10;;;0.10;;
13552;SDS011;6847;48.830;9.116;2022-08-01T03:40:07;0.10;;;0.10;;
13552;SDS011;6847;48.830;9.116;2022-08-01T03:42:58;0.10;;;0.10;;
13552;SDS011;6847;48.830;9.116;2022-08-01T03:45:50;0.10;;;0.10;;
13552;SDS011;6847;48.830;9.116;2022-08-01T03:48:39;0.30;;;0.30;;
13552;SDS011;6847;48.830;9.116;2022-08-01T03:51:27;0.10;;;0.10;;
13552;SDS011;6847;48.830;9.116;2022-08-01T03:54:21;0.10;;;0.10;;
13552;SDS011;6847;48.830;9.116;2022-08-01T03:57:09;0.10;;;0.10;;
13552;SDS011;6847;48.830;9.116;2022-08-01T03:59:56;0.10;;;0.10;;
13552;SDS011;6847;48.830;9.116;2022-08-01T04:02:45;0.10;;;0.10;;
13552;SDS011;6847;48.830;9.116;2022-08-01T04:05:31;0.10;;;0.10;;
13552;SDS011;6847;48.830;9.116;2022-08-01T04:08:16;0.10;;;0.10;;
13552;SDS011;6847;48.830;9.116;2022-08-01T04:11:02;0.10;;;0.10;;
13552;SDS011;6847;48.830;9.116;2022-08-01T04:13:51;0.10;;;0.10;;
13552;SDS011;6847;48.830;9.116;2022-08-01T04:16:37;0.10;;;0.10;;
13552;SDS011;6847;48.830;9.116;2022-08-01T04:19:24;0.10;;;0.10;;
13552;SDS011;6847;48.830;9.116;2022-08-01T04:22:10;0.10;;;0.10;;
13552;SDS011;6847;48.830;9.116;2022-08-01T04:24:58;0.10;;;0.10;;
13552;SDS011;6847;48.830;9.116;2022-08-01T04:27:47;0.10;;;0.10;;
13552;SDS011;6847;48.830;9.116;2022-08-01T04:30:37;0.10;;;0.10;;
13552;SDS011;6847;48.830;9.116;2022-08-01T04:33:24;0.10;;;0.10;;
13552;SDS011;6847;48.830;9.116;2022-08-01T04:36:14;0.10;;;0.10;;
13552;SDS011;6847;48.830;9.116;2022-08-01T04:39:03;0.10;;;0.10;;
13552;SDS011;6847;48.830;9.116;2022-08-01T04:41:50;0.10;;;0.10;;
13552;SDS011;6847;48.830;9.116;2022-08-01T04:44:39;0.10;;;0.10;;
13552;SDS011;6847;48.830;9.116;2022-08-01T04:47:25;0.10;;;0.10;;
13552;SDS011;6847;48.830;9.116;2022-08-01T04:50:11;0.10;;;0.10;;
13552;SDS011;6847;48.830;9.116;2022-08-01T04:52:58;0.10;;;0.10;;
13552;SDS011;6847;48.830;9.116;2022-08-01T04:55:46;0.10;;;0.10;;
13552;SDS011;6847;48.830;9.116;2022-08-01T04:58:35;0.10;;;0.10;;
13552;SDS011;6847;48.830;9.116;2022-08-01T05:01:21;0.10;;;0.10;;
13552;SDS011;6847;48.830;9.116;2022-08-01T05:04:06;0.10;;;0.10;;
13552;SDS011;6847;48.830;9.116;2022-08-01T05:06:52;0.10;;;0.10;;
13552;SDS011;6847;48.830;9.116;2022-08-01T05:09:40;0.10;;;0.10;;
13552;SDS011;6847;48.830;9.116;2022-08-01T05:12:26;0.10;;;0.10;;
13552;SDS011;6847;48.830;9.116;2022-08-01T05:15:15;0.10;;;0.10;;
13552;SDS011;6847;48.830;9.116;2022-08-01T05:18:00;0.10;;;0.10;;
13552;SDS011;6847;48.830;9.116;2022-08-01T05:20:46;0.10;;;0.10;;
13552;SDS011;6847;48.830;9.116;2022-08-01T05:23:31;0.10;;;0.10;;
13552;SDS011;6847;48.830;9.116;2022-08-01T05:26:18;0.10;;;0.10;;
13552;SDS011;6847;48.830;9.116;2022-08-01T05:29:06;0.10;;;0.10;;
13552;SDS011;6847;48.830;9.116;2022-08-01T05:31:52;0.10;;;0.10;;
13552;SDS011;6847;48.830;9.116;2022-08-01T05:34:39;0.10;;;0.10;;
13552;SDS011;6847;48.830;9.116;2022-08-01T05:37:24;0.10;;;0.10;;
13552;SDS011;6847;48.830;9.116;2022-08-01T05:40:11;0.10;;;0.10;;
13552;SDS011;6847;48.830;9.116;2022-08-01T05:42:58;0.10;;;0.10;;
13552;SDS011;6847;48.830;9.116;2022-08-01T05:45:57;0.10;;;0.10;;
13552;SDS011;6847;48.830;9.116;2022-08-01T05:48:46;0.10;;;0.10;;
13552;SDS011;6847;48.830;9.116;2022-08-01T05:51:31;0.20;;;0.20;;
13552;SDS011;6847;48.830;9.116;2022-08-01T05:54:17;0.10;;;0.10;;
13552;SDS011;6847;48.830;9.116;2022-08-01T05:57:02;0.10;;;0.10;;
13552;SDS011;6847;48.830;9.116;2022-08-01T05:59:50;0.10;;;0.10;;
13552;SDS011;6847;48.830;9.116;2022-08-01T06:02:40;0.17;;;0.17;;
13552;SDS011;6847;48.830;9.116;2022-08-01T06:05:26;0.10;;;0.10;;
13552;SDS011;6847;48.830;9.116;2022-08-01T06:08:12;0.10;;;0.10;;
13552;SDS011;6847;48.830;9.116;2022-08-01T06:11:00;0.10;;;0.10;;
13552;SDS011;6847;48.830;9.116;2022-08-01T06:13:46;0.10;;;0.10;;
13552;SDS011;6847;48.830;9.116;2022-08-01T06:16:35;0.10;;;0.10;;
13552;SDS011;6847;48.830;9.116;2022-08-01T06:19:23;0.10;;;0.10;;
13552;SDS011;6847;48.830;9.116;2022-08-01T06:22:09;0.10;;;0.10;;
13552;SDS011;6847;48.830;9.116;2022-08-01T06:24:58;0.10;;;0.10;;
13552;SDS011;6847;48.830;9.116;2022-08-01T06:27:44;0.10;;;0.10;;
13552;SDS011;6847;48.830;9.116;2022-08-01T06:30:29;0.17;;;0.17;;
13552;SDS011;6847;48.830;9.116;2022-08-01T06:33:16;0.10;;;0.10;;
13552;SDS011;6847;48.830;9.116;2022-08-01T06:36:01;0.10;;;0.10;;
13552;SDS011;6847;48.830;9.116;2022-08-01T06:38:47;0.10;;;0.10;;
13552;SDS011;6847;48.830;9.116;2022-08-01T06:41:32;0.10;;;0.10;;
13552;SDS011;6847;48.830;9.116;2022-08-01T06:44:18;0.13;;;0.13;;
13552;SDS011;6847;48.830;9.116;2022-08-01T06:47:17;0.10;;;0.10;;
13552;SDS011;6847;48.830;9.116;2022-08-01T06:50:05;0.10;;;0.10;;
13552;SDS011;6847;48.830;9.116;2022-08-01T06:52:52;0.10;;;0.10;;
13552;SDS011;6847;48.830;9.116;2022-08-01T06:55:37;0.20;;;0.20;;
13552;SDS011;6847;48.830;9.116;2022-08-01T06:58:23;0.20;;;0.20;;
13552;SDS011;6847;48.830;9.116;2022-08-01T07:01:08;0.10;;;0.10;;
13552;SDS011;6847;48.830;9.116;2022-08-01T07:03:53;0.10;;;0.10;;
13552;SDS011;6847;48.830;9.116;2022-08-01T07:06:40;0.10;;;0.10;;
13552;SDS011;6847;48.830;9.116;2022-08-01T07:09:26;0.15;;;0.15;;
13552;SDS011;6847;48.830;9.116;2022-08-01T07:12:13;0.20;;;0.20;;
13552;SDS011;6847;48.830;9.116;2022-08-01T07:14:58;0.10;;;0.10;;
13552;SDS011;6847;48.830;9.116;2022-08-01T07:17:44;0.10;;;0.10;;
13552;SDS011;6847;48.830;9.116;2022-08-01T07:20:29;0.13;;;0.13;;
13552;SDS011;6847;48.830;9.116;2022-08-01T07:23:16;0.20;;;0.20;;
13552;SDS011;6847;48.830;9.116;2022-08-01T07:26:02;0.10;;;0.10;;
13552;SDS011;6847;48.830;9.116;2022-08-01T07:28:48;0.10;;;0.10;;
13552;SDS011;6847;48.830;9.116;2022-08-01T07:31:36;0.20;;;0.20;;
13552;SDS011;6847;48.830;9.116;2022-08-01T07:34:23;0.20;;;0.20;;
13552;SDS011;6847;48.830;9.116;2022-08-01T07:37:11;0.17;;;0.17;;
13552;SDS011;6847;48.830;9.116;2022-08-01T07:39:57;0.10;;;0.10;;
13552;SDS011;6847;48.830;9.116;2022-08-01T07:42:48;0.20;;;0.20;;
13552;SDS011;6847;48.830;9.116;2022-08-01T07:45:37;0.20;;;0.20;;
13552;SDS011;6847;48.830;9.116;2022-08-01T07:48:22;0.20;;;0.20;;
13552;SDS011;6847;48.830;9.116;2022-08-01T07:51:08;0.20;;;0.20;;
13552;SDS011;6847;48.830;9.116;2022-08-01T07:53:53;0.20;;;0.20;;
13552;SDS011;6847;48.830;9.116;2022-08-01T07:56:40;0.20;;;0.20;;
13552;SDS011;6847;48.830;9.116;2022-08-01T07:59:25;0.20;;;0.20;;
13552;SDS011;6847;48.830;9.116;2022-08-01T08:02:11;0.17;;;0.17;;
13552;SDS011;6847;48.830;9.116;2022-08-01T08:04:56;0.20;;;0.20;;
13552;SDS011;6847;48.830;9.116;2022-08-01T08:07:41;0.20;;;0.20;;
13552;SDS011;6847;48.830;9.116;2022-08-01T08:10:27;0.20;;;0.20;;
13552;SDS011;6847;48.830;9.116;2022-08-01T08:13:18;0.20;;;0.20;;
13552;SDS011;6847;48.830;9.116;2022-08-01T08:16:03;0.20;;;0.20;;
13552;SDS011;6847;48.830;9.116;2022-08-01T08:18:48;0.20;;;0.20;;
13552;SDS011;6847;48.830;9.116;2022-08-01T08:21:34;0.20;;;0.20;;
13552;SDS011;6847;48.830;9.116;2022-08-01T08:24:21;0.20;;;0.20;;
13552;SDS011;6847;48.830;9.116;2022-08-01T08:27:11;0.20;;;0.20;;
13552;SDS011;6847;48.830;9.116;2022-08-01T08:29:58;0.20;;;0.20;;
13552;SDS011;6847;48.830;9.116;2022-08-01T08:32:44;0.20;;;0.20;;
13552;SDS011;6847;48.830;9.116;2022-08-01T08:35:29;0.20;;;0.20;;
13552;SDS011;6847;48.830;9.116;2022-08-01T08:38:15;0.10;;;0.10;;
13552;SDS011;6847;48.830;9.116;2022-08-01T08:41:00;0.32;;;0.32;;
13552;SDS011;6847;48.830;9.116;2022-08-01T08:43:46;0.20;;;0.20;;
13552;SDS011;6847;48.830;9.116;2022-08-01T08:46:33;0.20;;;0.20;;
13552;SDS011;6847;48.830;9.116;2022-08-01T08:49:28;0.20;;;0.20;;
13552;SDS011;6847;48.830;9.116;2022-08-01T08:52:14;0.20;;;0.20;;
13552;SDS011;6847;48.830;9.116;2022-08-01T08:55:00;0.20;;;0.20;;
13552;SDS011;6847;48.830;9.116;2022-08-01T08:57:46;0.20;;;0.20;;
13552;SDS011;6847;48.830;9.116;2022-08-01T09:00:32;0.10;;;0.10;;
13552;SDS011;6847;48.830;9.116;2022-08-01T09:03:21;0.25;;;0.25;;
13552;SDS011;6847;48.830;9.116;2022-08-01T09:06:06;0.20;;;0.20;;
13552;SDS011;6847;48.830;9.116;2022-08-01T09:08:52;0.20;;;0.20;;
13552;SDS011;6847;48.830;9.116;2022-08-01T09:11:37;0.20;;;0.20;;
13552;SDS011;6847;48.830;9.116;2022-08-01T09:14:23;0.20;;;0.20;;
13552;SDS011;6847;48.830;9.116;2022-08-01T09:17:13;0.10;;;0.10;;
13552;SDS011;6847;48.830;9.116;2022-08-01T09:20:04;0.20;;;0.20;;
13552;SDS011;6847;48.830;9.116;2022-08-01T09:22:53;0.10;;;0.10;;
13552;SDS011;6847;48.830;9.116;2022-08-01T09:25:55;0.20;;;0.20;;
13552;SDS011;6847;48.830;9.116;2022-08-01T09:28:42;0.20;;;0.20;;
13552;SDS011;6847;48.830;9.116;2022-08-01T09:31:29;0.20;;;0.20;;
13552;SDS011;6847;48.830;9.116;2022-08-01T09:34:15;0.35;;;0.35;;
13552;SDS011;6847;48.830;9.116;2022-08-01T09:37:08;0.20;;;0.20;;
13552;SDS011;6847;48.830;9.116;2022-08-01T09:39:55;0.20;;;0.20;;
13552;SDS011;6847;48.830;9.116;2022-08-01T09:42:43;0.20;;;0.20;;
13552;SDS011;6847;48.830;9.116;2022-08-01T09:45:33;0.20;;;0.20;;
13552;SDS011;6847;48.830;9.116;2022-08-01T09:48:29;0.20;;;0.20;;
13552;SDS011;6847;48.830;9.116;2022-08-01T09:51:21;0.20;;;0.20;;
13552;SDS011;6847;48.830;9.116;2022-08-01T09:54:13;0.30;;;0.30;;
13552;SDS011;6847;48.830;9.116;2022-08-01T09:57:19;0.20;;;0.20;;
13552;SDS011;6847;48.830;9.116;2022-08-01T10:00:16;0.20;;;0.20;;
13552;SDS011;6847;48.830;9.116;2022-08-01T10:06:19;0.20;;;0.20;;
13552;SDS011;6847;48.830;9.116;2022-08-01T10:09:10;0.17;;;0.17;;
13552;SDS011;6847;48.830;9.116;2022-08-01T10:11:56;0.20;;;0.20;;
13552;SDS011;6847;48.830;9.116;2022-08-01T10:14:45;0.20;;;0.20;;
13552;SDS011;6847;48.830;9.116;2022-08-01T10:17:53;0.25;;;0.25;;
13552;SDS011;6847;48.830;9.116;2022-08-01T10:20:59;0.30;;;0.30;;
13552;SDS011;6847;48.830;9.116;2022-08-01T10:24:05;0.20;;;0.20;;
13552;SDS011;6847;48.830;9.116;2022-08-01T10:27:08;0.20;;;0.20;;
13552;SDS011;6847;48.830;9.116;2022-08-01T10:29:55;0.20;;;0.20;;
13552;SDS011;6847;48.830;9.116;2022-08-01T10:32:44;0.20;;;0.20;;
13552;SDS011;6847;48.830;9.116;2022-08-01T10:35:37;0.20;;;0.20;;
13552;SDS011;6847;48.830;9.116;2022-08-01T10:38:23;0.20;;;0.20;;
13552;SDS011;6847;48.830;9.116;2022-08-01T10:41:09;0.25;;;0.25;;
13552;SDS011;6847;48.830;9.116;2022-08-01T10:44:01;0.30;;;0.30;;
13552;SDS011;6847;48.830;9.116;2022-08-01T10:46:50;0.20;;;0.20;;
13552;SDS011;6847;48.830;9.116;2022-08-01T10:49:43;0.20;;;0.20;;
13552;SDS011;6847;48.830;9.116;2022-08-01T10:52:35;0.30;;;0.30;;
13552;SDS011;6847;48.830;9.116;2022-08-01T10:55:23;0.30;;;0.30;;
13552;SDS011;6847;48.830;9.116;2022-08-01T10:58:12;0.20;;;0.20;;
13552;SDS011;6847;48.830;9.116;2022-08-01T11:04:09;0.30;;;0.30;;
13552;SDS011;6847;48.830;9.116;2022-08-01T11:07:03;0.40;;;0.40;;
13552;SDS011;6847;48.830;9.116;2022-08-01T11:10:01;0.30;;;0.30;;
13552;SDS011;6847;48.830;9.116;2022-08-01T11:12:48;0.30;;;0.30;;
13552;SDS011;6847;48.830;9.116;2022-08-01T11:15:37;0.40;;;0.40;;
13552;SDS011;6847;48.830;9.116;2022-08-01T11:18:31;0.40;;;0.40;;
13552;SDS011;6847;48.830;9.116;2022-08-01T11:21:16;0.40;;;0.40;;
13552;SDS011;6847;48.830;9.116;2022-08-01T11:24:09;0.30;;;0.30;;
13552;SDS011;6847;48.830;9.116;2022-08-01T11:33:09;0.38;;;0.38;;
13552;SDS011;6847;48.830;9.116;2022-08-01T11:36:17;0.30;;;0.30;;
13552;SDS011;6847;48.830;9.116;2022-08-01T11:39:49;0.40;;;0.40;;
13552;SDS011;6847;48.830;9.116;2022-08-01T11:43:16;0.40;;;0.40;;
13552;SDS011;6847;48.830;9.116;2022-08-01T11:46:04;0.30;;;0.30;;
13552;SDS011;6847;48.830;9.116;2022-08-01T11:52:18;0.40;;;0.40;;
13552;SDS011;6847;48.830;9.116;2022-08-01T11:55:09;0.30;;;0.30;;
13552;SDS011;6847;48.830;9.116;2022-08-01T12:01:08;0.30;;;0.30;;
13552;SDS011;6847;48.830;9.116;2022-08-01T12:03:59;0.28;;;0.28;;
13552;SDS011;6847;48.830;9.116;2022-08-01T12:06:44;0.35;;;0.35;;
13552;SDS011;6847;48.830;9.116;2022-08-01T12:09:29;0.30;;;0.30;;
13552;SDS011;6847;48.830;9.116;2022-08-01T12:12:18;0.38;;;0.38;;
13552;SDS011;6847;48.830;9.116;2022-08-01T12:18:59;0.30;;;0.30;;
13552;SDS011;6847;48.830;9.116;2022-08-01T12:24:52;0.40;;;0.40;;
13552;SDS011;6847;48.830;9.116;2022-08-01T12:27:39;0.30;;;0.30;;
13552;SDS011;6847;48.830;9.116;2022-08-01T12:30:25;0.40;;;0.40;;
13552;SDS011;6847;48.830;9.116;2022-08-01T12:33:16;0.30;;;0.30;;
13552;SDS011;6847;48.830;9.116;2022-08-01T12:36:03;0.38;;;0.38;;
13552;SDS011;6847;48.830;9.116;2022-08-01T12:38:51;0.50;;;0.50;;
13552;SDS011;6847;48.830;9.116;2022-08-01T12:41:37;0.30;;;0.30;;
13552;SDS011;6847;48.830;9.116;2022-08-01T12:44:27;0.25;;;0.25;;
13552;SDS011;6847;48.830;9.116;2022-08-01T12:47:15;0.32;;;0.32;;
13552;SDS011;6847;48.830;9.116;2022-08-01T12:50:01;0.40;;;0.40;;
13552;SDS011;6847;48.830;9.116;2022-08-01T12:52:49;0.40;;;0.40;;
13552;SDS011;6847;48.830;9.116;2022-08-01T12:55:43;0.50;;;0.50;;
13552;SDS011;6847;48.830;9.116;2022-08-01T12:58:33;0.45;;;0.45;;
13552;SDS011;6847;48.830;9.116;2022-08-01T13:01:24;0.30;;;0.30;;
13552;SDS011;6847;48.830;9.116;2022-08-01T13:04:13;0.30;;;0.30;;
13552;SDS011;6847;48.830;9.116;2022-08-01T13:07:01;0.30;;;0.30;;
13552;SDS011;6847;48.830;9.116;2022-08-01T13:09:51;0.35;;;0.35;;
13552;SDS011;6847;48.830;9.116;2022-08-01T13:12:37;0.40;;;0.40;;
13552;SDS011;6847;48.830;9.116;2022-08-01T13:15:25;0.50;;;0.50;;
13552;SDS011;6847;48.830;9.116;2022-08-01T13:18:25;0.30;;;0.30;;
13552;SDS011;6847;48.830;9.116;2022-08-01T13:21:13;0.40;;;0.40;;
13552;SDS011;6847;48.830;9.116;2022-08-01T13:24:04;0.40;;;0.40;;
13552;SDS011;6847;48.830;9.116;2022-08-01T13:26:53;0.50;;;0.50;;
13552;SDS011;6847;48.830;9.116;2022-08-01T13:29:42;0.40;;;0.40;;
13552;SDS011;6847;48.830;9.116;2022-08-01T13:32:29;0.30;;;0.30;;
13552;SDS011;6847;48.830;9.116;2022-08-01T13:35:19;0.40;;;0.40;;
13552;SDS011;6847;48.830;9.116;2022-08-01T13:38:05;0.40;;;0.40;;
13552;SDS011;6847;48.830;9.116;2022-08-01T13:40:57;0.47;;;0.47;;
13552;SDS011;6847;48.830;9.116;2022-08-01T13:43:45;0.30;;;0.30;;
13552;SDS011;6847;48.830;9.116;2022-08-01T13:46:31;0.30;;;0.30;;
13552;SDS011;6847;48.830;9.116;2022-08-01T13:49:16;0.30;;;0.30;;
13552;SDS011;6847;48.830;9.116;2022-08-01T13:52:02;0.40;;;0.40;;
13552;SDS011;6847;48.830;9.116;2022-08-01T13:54:52;0.40;;;0.40;;
13552;SDS011;6847;48.830;9.116;2022-08-01T13:57:38;0.40;;;0.40;;
13552;SDS011;6847;48.830;9.116;2022-08-01T14:00:24;0.38;;;0.38;;
13552;SDS011;6847;48.830;9.116;2022-08-01T14:03:10;0.32;;;0.32;;
13552;SDS011;6847;48.830;9.116;2022-08-01T14:05:55;0.30;;;0.30;;
13552;SDS011;6847;48.830;9.116;2022-08-01T14:08:41;0.40;;;0.40;;
13552;SDS011;6847;48.830;9.116;2022-08-01T14:11:28;0.47;;;0.47;;
13552;SDS011;6847;48.830;9.116;2022-08-01T14:14:13;0.40;;;0.40;;
13552;SDS011;6847;48.830;9.116;2022-08-01T14:17:00;0.30;;;0.30;;
13552;SDS011;6847;48.830;9.116;2022-08-01T14:19:48;0.40;;;0.40;;
13552;SDS011;6847;48.830;9.116;2022-08-01T14:22:34;1.00;;;0.50;;
13552;SDS011;6847;48.830;9.116;2022-08-01T14:25:24;0.55;;;0.55;;
13552;SDS011;6847;48.830;9.116;2022-08-01T14:28:11;0.40;;;0.40;;
13552;SDS011;6847;48.830;9.116;2022-08-01T14:30:57;0.40;;;0.40;;
13552;SDS011;6847;48.830;9.116;2022-08-01T14:33:45;0.43;;;0.43;;
13552;SDS011;6847;48.830;9.116;2022-08-01T14:36:33;0.40;;;0.40;;
13552;SDS011;6847;48.830;9.116;2022-08-01T14:39:22;0.40;;;0.40;;
13552;SDS011;6847;48.830;9.116;2022-08-01T14:42:10;0.40;;;0.40;;
13552;SDS011;6847;48.830;9.116;2022-08-01T14:44:55;0.32;;;0.32;;
13552;SDS011;6847;48.830;9.116;2022-08-01T14:47:41;0.40;;;0.40;;
13552;SDS011;6847;48.830;9.116;2022-08-01T14:50:31;0.30;;;0.30;;
13552;SDS011;6847;48.830;9.116;2022-08-01T14:53:21;0.50;;;0.50;;
13552;SDS011;6847;48.830;9.116;2022-08-01T14:56:06;0.30;;;0.30;;
13552;SDS011;6847;48.830;9.116;2022-08-01T14:58:53;0.30;;;0.30;;
13552;SDS011;6847;48.830;9.116;2022-08-01T15:01:44;0.30;;;0.30;;
13552;SDS011;6847;48.830;9.116;2022-08-01T15:04:30;0.38;;;0.38;;
13552;SDS011;6847;48.830;9.116;2022-08-01T15:07:17;0.30;;;0.30;;
13552;SDS011;6847;48.830;9.116;2022-08-01T15:10:05;0.30;;;0.30;;
13552;SDS011;6847;48.830;9.116;2022-08-01T15:12:55;0.28;;;0.28;;
13552;SDS011;6847;48.830;9.116;2022-08-01T15:15:43;0.30;;;0.30;;
13552;SDS011;6847;48.830;9.116;2022-08-01T15:18:28;0.30;;;0.30;;
13552;SDS011;6847;48.830;9.116;2022-08-01T15:21:14;0.30;;;0.30;;
13552;SDS011;6847;48.830;9.116;2022-08-01T15:24:02;0.30;;;0.30;;
13552;SDS011;6847;48.830;9.116;2022-08-01T15:26:49;0.30;;;0.30;;
13552;SDS011;6847;48.830;9.116;2022-08-01T15:29:34;0.30;;;0.30;;
13552;SDS011;6847;48.830;9.116;2022-08-01T15:32:21;0.22;;;0.22;;
13552;SDS011;6847;48.830;9.116;2022-08-01T15:35:08;0.30;;;0.30;;
13552;SDS011;6847;48.830;9.116;2022-08-01T15:40:49;0.40;;;0.40;;
13552;SDS011;6847;48.830;9.116;2022-08-01T15:43:35;0.30;;;0.30;;
13552;SDS011;6847;48.830;9.116;2022-08-01T15:46:22;0.30;;;0.30;;
13552;SDS011;6847;48.830;9.116;2022-08-01T15:49:09;0.25;;;0.25;;
13552;SDS011;6847;48.830;9.116;2022-08-01T15:51:54;0.30;;;0.30;;
13552;SDS011;6847;48.830;9.116;2022-08-01T15:54:40;0.30;;;0.30;;
13552;SDS011;6847;48.830;9.116;2022-08-01T15:57:27;0.30;;;0.30;;
13552;SDS011;6847;48.830;9.116;2022-08-01T16:00:12;0.20;;;0.20;;
13552;SDS011;6847;48.830;9.116;2022-08-01T16:02:58;0.38;;;0.38;;
13552;SDS011;6847;48.830;9.116;2022-08-01T16:05:44;0.30;;;0.30;;
13552;SDS011;6847;48.830;9.116;2022-08-01T16:08:29;0.30;;;0.30;;
13552;SDS011;6847;48.830;9.116;2022-08-01T16:11:15;0.20;;;0.20;;
13552;SDS011;6847;48.830;9.116;2022-08-01T16:14:07;0.30;;;0.30;;
13552;SDS011;6847;48.830;9.116;2022-08-01T16:16:52;0.20;;;0.20;;
13552;SDS011;6847;48.830;9.116;2022-08-01T16:19:47;0.20;;;0.20;;
13552;SDS011;6847;48.830;9.116;2022-08-01T16:22:54;0.30;;;0.30;;
13552;SDS011;6847;48.830;9.116;2022-08-01T16:25:41;0.20;;;0.20;;
13552;SDS011;6847;48.830;9.116;2022-08-01T16:28:27;0.30;;;0.30;;
13552;SDS011;6847;48.830;9.116;2022-08-01T16:31:16;0.35;;;0.35;;
13552;SDS011;6847;48.830;9.116;2022-08-01T16:34:12;0.20;;;0.20;;
13552;SDS011;6847;48.830;9.116;2022-08-01T16:36:58;0.20;;;0.20;;
13552;SDS011;6847;48.830;9.116;2022-08-01T16:39:46;0.20;;;0.20;;
13552;SDS011;6847;48.830;9.116;2022-08-01T16:42:31;0.20;;;0.20;;
13552;SDS011;6847;48.830;9.116;2022-08-01T16:45:17;0.20;;;0.20;;
13552;SDS011;6847;48.830;9.116;2022-08-01T16:51:43;0.20;;;0.20;;
13552;SDS011;6847;48.830;9.116;2022-08-01T16:54:28;0.20;;;0.20;;
13552;SDS011;6847;48.830;9.116;2022-08-01T16:57:18;0.30;;;0.30;;
13552;SDS011;6847;48.830;9.116;2022-08-01T17:00:04;0.20;;;0.20;;
13552;SDS011;6847;48.830;9.116;2022-08-01T17:02:51;0.30;;;0.30;;
13552;SDS011;6847;48.830;9.116;2022-08-01T17:05:37;0.20;;;0.20;;
13552;SDS011;6847;48.830;9.116;2022-08-01T17:08:26;0.20;;;0.20;;
13552;SDS011;6847;48.830;9.116;2022-08-01T17:11:11;0.20;;;0.20;;
13552;SDS011;6847;48.830;9.116;2022-08-01T17:13:57;0.20;;;0.20;;
13552;SDS011;6847;48.830;9.116;2022-08-01T17:16:42;0.20;;;0.20;;
13552;SDS011;6847;48.830;9.116;2022-08-01T17:19:28;0.20;;;0.20;;
13552;SDS011;6847;48.830;9.116;2022-08-01T17:22:15;0.20;;;0.20;;
13552;SDS011;6847;48.830;9.116;2022-08-01T17:25:03;0.20;;;0.20;;
13552;SDS011;6847;48.830;9.116;2022-08-01T17:27:50;0.20;;;0.20;;
13552;SDS011;6847;48.830;9.116;2022-08-01T17:30:38;0.20;;;0.20;;
13552;SDS011;6847;48.830;9.116;2022-08-01T17:33:24;0.20;;;0.20;;
13552;SDS011;6847;48.830;9.116;2022-08-01T17:36:09;0.20;;;0.20;;
13552;SDS011;6847;48.830;9.116;2022-08-01T17:38:57;0.20;;;0.20;;
13552;SDS011;6847;48.830;9.116;2022-08-01T17:41:44;0.20;;;0.20;;
13552;SDS011;6847;48.830;9.116;2022-08-01T17:44:32;0.20;;;0.20;;